Oakes, North Dakota
Current Conditions -  °F | °C
As of 4:35 PM on Friday 24 Oct 2014 (Local Time) from KGWR Reporting Station
Clear Clear  
Wind Chill: 77°   Ceiling: Unl
Heat Index: 78°   Visibility: 10mi
Dew Point: 41°   Wind: 15mph
Humidity: 28%   Direction: 270°W
Pressure: 29.84"   Gusts: 28mph
Location:  46.14°N, 98.09°W
Report Text: KGWR 242135Z AUTO 27013G24KT 10SM CLR 25/05 A2984 RMK A01 P000
Loading
Personal Weather Stations






























Interactive Weather Map New forecast layout! Learn more

10-Day Weather Forecast

Advertisements
Track Severe Weather on mobile